Terminal Aerodrome Forecast
Issued by NWS

Home | Current Version | Previous Version | Text Only | Print | Product List | Glossary On
Versions: 1 2 3 4 5 6 7 8 9 10 11 12 13 14 15 16 17
744
FTUS43 KOAX 262320
TAFBFF
TAF
KBFF 262320Z 2700/2724 12014KT P6SM VCTS SCT040CB BKN070
     FM270100 11006KT P6SM BKN080
     FM270800 VRB04KT 3SM BR OVC012
     FM271500 28008KT P6SM SCT015=

USA.gov is the U.S. government's official web portal to all federal, state and local government web resources and services.